Time;durP1;ratioP1;P1;durP2;ratioP2;P2;SDS_P1;SDS_P2;PMS_P1;PMS_P2;Temp;Humidity;BMP_temperature;BMP_pressure;BME280_temperature;BME280_humidity;BME280_pressure;Samples;Min_cycle;Max_cycle;Signal;HPM_P1;HPM_P2
2023/01/24 00:00:04;;;;;;;8.95;5.57;;;3.00;87.90;;;;;;5021770;28;20043;-77
2023/01/24 00:02:30;;;;;;;8.27;5.07;;;3.00;87.90;;;;;;5014166;28;20138;-79
2023/01/24 00:04:56;;;;;;;8.55;5.40;;;3.00;87.90;;;;;;5030738;28;20712;-78
2023/01/24 00:07:21;;;;;;;9.15;5.30;;;3.00;87.90;;;;;;5015895;28;20040;-77
2023/01/24 00:09:47;;;;;;;9.52;5.32;;;2.90;87.90;;;;;;5036437;28;20036;-78
2023/01/24 00:12:12;;;;;;;12.93;5.85;;;2.90;88.00;;;;;;5029731;28;20037;-79
2023/01/24 00:14:38;;;;;;;9.80;6.07;;;2.90;88.00;;;;;;5019952;28;20033;-80
2023/01/24 00:17:03;;;;;;;6.75;4.45;;;3.00;88.00;;;;;;5015962;28;20098;-79
2023/01/24 00:19:29;;;;;;;8.65;5.50;;;3.00;88.10;;;;;;5003976;28;20112;-78
2023/01/24 00:21:55;;;;;;;8.40;5.60;;;3.00;88.10;;;;;;5018257;28;20709;-77
2023/01/24 00:24:20;;;;;;;8.32;5.20;;;2.90;88.00;;;;;;5018515;28;20262;-78
2023/01/24 00:26:46;;;;;;;8.45;5.30;;;2.90;88.00;;;;;;5003691;28;20449;-77
2023/01/24 00:29:11;;;;;;;8.15;4.97;;;2.90;88.10;;;;;;5018950;28;20033;-79
2023/01/24 00:31:37;;;;;;;10.68;5.60;;;2.90;88.10;;;;;;5011777;28;20036;-80
2023/01/24 00:34:02;;;;;;;9.40;5.30;;;2.90;88.00;;;;;;4999807;28;20098;-79
2023/01/24 00:36:28;;;;;;;7.60;5.22;;;2.90;88.10;;;;;;5017247;28;20033;-77
2023/01/24 00:38:54;;;;;;;9.60;5.63;;;2.90;88.10;;;;;;5031927;28;20037;-75
2023/01/24 00:41:20;;;;;;;9.00;5.15;;;2.90;88.10;;;;;;5034463;28;20132;-76
2023/01/24 00:43:45;;;;;;;11.68;4.95;;;2.90;88.10;;;;;;5016692;28;20045;-78
2023/01/24 00:46:11;;;;;;;7.38;4.95;;;2.90;88.20;;;;;;5027300;28;20037;-77
2023/01/24 00:48:37;;;;;;;9.77;5.53;;;2.90;88.10;;;;;;5023692;28;20075;-80
2023/01/24 00:51:02;;;;;;;9.80;5.47;;;2.90;88.20;;;;;;5019182;28;20040;-78
2023/01/24 00:53:28;;;;;;;9.77;5.30;;;2.90;88.10;;;;;;5022302;28;20149;-78
2023/01/24 00:55:54;;;;;;;8.45;4.93;;;2.90;88.20;;;;;;5019760;28;20755;-77
2023/01/24 00:58:20;;;;;;;10.38;5.85;;;2.90;88.20;;;;;;5030531;28;20033;-78
2023/01/24 01:00:46;;;;;;;9.00;5.50;;;2.90;88.20;;;;;;5007343;28;20037;-77
2023/01/24 01:03:16;;;;;;;8.77;4.75;;;2.90;88.20;;;;;;5016041;28;20085;-77
2023/01/24 01:05:42;;;;;;;10.40;5.68;;;2.80;88.10;;;;;;5030334;28;20033;-78
2023/01/24 01:08:08;;;;;;;7.82;4.72;;;2.90;88.20;;;;;;5032836;28;20513;-76
2023/01/24 01:10:33;;;;;;;8.57;4.45;;;2.90;88.20;;;;;;5016974;28;20577;-78
2023/01/24 01:12:59;;;;;;;7.45;4.70;;;2.90;88.20;;;;;;5035337;28;20040;-78
2023/01/24 01:15:24;;;;;;;6.72;4.45;;;2.90;89.00;;;;;;5022496;28;20120;-76
2023/01/24 01:17:50;;;;;;;11.98;5.45;;;2.90;88.20;;;;;;5034871;28;20100;-76
2023/01/24 01:20:16;;;;;;;8.85;4.80;;;2.90;88.20;;;;;;5033246;28;20275;-80
2023/01/24 01:22:41;;;;;;;8.38;4.78;;;2.80;88.20;;;;;;5033185;28;20438;-77
2023/01/24 01:25:07;;;;;;;8.25;4.35;;;2.90;88.20;;;;;;5030367;28;20091;-78
2023/01/24 01:27:33;;;;;;;7.60;4.72;;;2.80;88.10;;;;;;5034283;28;20044;-77
2023/01/24 01:29:58;;;;;;;7.38;4.22;;;2.90;88.20;;;;;;5034106;28;20388;-78
2023/01/24 01:32:24;;;;;;;8.40;4.38;;;2.80;88.10;;;;;;5018804;28;20033;-78
2023/01/24 01:34:49;;;;;;;8.80;5.05;;;2.80;88.20;;;;;;5014247;28;20403;-79
2023/01/24 01:37:15;;;;;;;8.10;4.63;;;2.80;88.20;;;;;;5017682;28;20031;-79
2023/01/24 01:39:40;;;;;;;5.93;4.00;;;2.90;88.20;;;;;;5027714;28;20102;-78
2023/01/24 01:42:06;;;;;;;6.43;4.32;;;2.80;88.20;;;;;;5035674;28;20040;-81
2023/01/24 01:44:37;;;;;;;6.40;4.40;;;2.80;88.20;;;;;;5020048;28;20033;-77
2023/01/24 01:47:04;;;;;;;;;;;2.80;88.20;;;;;;5031030;28;20033;-79
2023/01/24 01:49:29;;;;;;;8.63;4.30;;;2.80;88.20;;;;;;5031253;28;19936;-78
2023/01/24 01:52:03;;;;;;;6.65;4.70;;;2.80;88.10;;;;;;5022265;28;20029;-79
2023/01/24 01:54:34;;;;;;;7.07;4.40;;;2.80;88.20;;;;;;5031387;28;20036;-79
2023/01/24 01:57:05;;;;;;;6.65;4.25;;;2.80;88.30;;;;;;5007995;28;20062;-78
2023/01/24 01:59:32;;;;;;;;;;;2.80;88.30;;;;;;5018023;28;20040;-77
2023/01/24 02:01:57;;;;;;;7.10;4.30;;;2.80;88.30;;;;;;5035544;28;19924;-77
2023/01/24 02:04:27;;;;;;;8.55;4.35;;;2.80;88.20;;;;;;5023877;28;20039;-76
2023/01/24 02:07:08;;;;;;;7.45;4.90;;;2.80;88.30;;;;;;5005440;28;20056;-78
2023/01/24 02:09:42;;;;;;;7.07;4.38;;;2.80;88.40;;;;;;5032354;28;20037;-79
2023/01/24 02:12:28;;;;;;;7.40;4.10;;;2.80;88.40;;;;;;5040074;28;20121;-77
2023/01/24 02:17:40;;;;;;;7.03;4.47;;;2.80;88.40;;;;;;5036385;28;20419;-79
2023/01/24 02:20:10;;;;;;;6.95;4.25;;;2.80;88.50;;;;;;5036338;28;20045;-79
2023/01/24 02:23:03;;;;;;;7.32;4.20;;;2.80;88.40;;;;;;5035451;28;20132;-78
2023/01/24 02:25:48;;;;;;;8.75;4.85;;;2.80;88.50;;;;;;5033165;28;20036;-78
2023/01/24 02:28:13;;;;;;;6.40;4.07;;;2.80;88.40;;;;;;5019178;28;20041;-79
2023/01/24 02:30:39;;;;;;;10.88;5.10;;;2.80;88.50;;;;;;5037063;28;20091;-77
2023/01/24 02:33:12;;;;;;;7.90;4.63;;;2.80;88.50;;;;;;5036998;28;21311;-79
2023/01/24 02:35:38;;;;;;;7.82;4.63;;;2.80;88.50;;;;;;5037158;28;20521;-77
2023/01/24 02:38:05;;;;;;;7.55;4.47;;;2.80;88.50;;;;;;5037854;28;20055;-79
2023/01/24 02:40:30;;;;;;;7.05;4.03;;;2.80;88.50;;;;;;5020526;28;20037;-79
2023/01/24 02:42:58;;;;;;;6.95;4.45;;;2.80;88.60;;;;;;5019417;28;20056;-77
2023/01/24 02:45:27;;;;;;;6.90;3.90;;;2.80;88.60;;;;;;5018388;28;20041;-78
2023/01/24 02:47:54;;;;;;;7.20;4.47;;;2.80;89.30;;;;;;5036577;28;20033;-79
2023/01/24 02:50:21;;;;;;;8.10;4.22;;;2.80;88.60;;;;;;5033925;28;20575;-77
2023/01/24 02:55:31;;;;;;;6.63;3.80;;;2.80;88.70;;;;;;5036867;28;20059;-77
2023/01/24 02:58:06;;;;;;;7.75;4.20;;;2.80;88.60;;;;;;5036112;28;20127;-77
2023/01/24 03:00:41;;;;;;;7.70;4.65;;;2.80;88.70;;;;;;5021084;28;20060;-77
2023/01/24 03:03:34;;;;;;;8.63;3.88;;;2.80;88.70;;;;;;5035269;28;20048;-77
2023/01/24 03:06:00;;;;;;;7.10;4.18;;;2.80;88.70;;;;;;5037862;28;20138;-78
2023/01/24 03:08:27;;;;;;;6.25;4.10;;;2.80;88.70;;;;;;5031658;28;20483;-79
2023/01/24 03:10:53;;;;;;;8.43;4.57;;;2.80;88.70;;;;;;5035411;28;20060;-77
2023/01/24 03:35:11;;;;;;;7.30;4.45;;;2.70;89.50;;;;;;5037919;28;20086;-78
2023/01/24 03:40:21;;;;;;;7.35;4.55;;;2.70;88.80;;;;;;5034373;28;20033;-78
2023/01/24 03:42:47;;;;;;;6.50;4.07;;;2.70;88.80;;;;;;5034759;28;20037;-78
2023/01/24 03:45:32;;;;;;;8.65;4.30;;;2.70;88.90;;;;;;5033833;28;20824;-77
2023/01/24 03:47:59;;;;;;;7.65;4.00;;;2.70;89.00;;;;;;5035176;28;20056;-77
2023/01/24 03:53:12;;;;;;;7.53;4.20;;;2.70;88.90;;;;;;5037421;28;20109;-78
2023/01/24 03:55:38;;;;;;;8.57;4.68;;;2.70;89.00;;;;;;5015059;28;20041;-76
2023/01/24 03:58:04;;;;;;;6.88;4.05;;;2.70;89.00;;;;;;5015635;28;20032;-78
2023/01/24 04:00:29;;;;;;;7.70;4.93;;;2.70;89.00;;;;;;5025179;28;20056;-77
2023/01/24 04:02:55;;;;;;;7.75;4.20;;;2.70;89.00;;;;;;5022475;28;20152;-78
2023/01/24 04:05:20;;;;;;;8.45;4.45;;;2.70;89.00;;;;;;5016115;28;20500;-76
2023/01/24 04:07:49;;;;;;;9.90;4.72;;;2.70;89.00;;;;;;5001643;28;20592;-79
2023/01/24 04:10:15;;;;;;;8.35;4.72;;;2.70;89.00;;;;;;5015907;28;20562;-76
2023/01/24 04:12:41;;;;;;;8.05;4.40;;;2.70;89.10;;;;;;5037980;28;20117;-77
2023/01/24 04:15:07;;;;;;;9.00;4.60;;;2.70;89.10;;;;;;5025069;28;20045;-77
2023/01/24 04:17:33;;;;;;;10.50;4.85;;;2.70;89.10;;;;;;5003613;28;20049;-76
2023/01/24 04:19:58;;;;;;;9.38;4.85;;;2.70;89.10;;;;;;5022783;28;20052;-77
2023/01/24 04:22:24;;;;;;;7.65;4.40;;;2.70;89.10;;;;;;5018737;28;20037;-78
2023/01/24 04:24:50;;;;;;;8.25;4.82;;;2.80;89.30;;;;;;5035529;28;20045;-79
2023/01/24 04:27:15;;;;;;;9.73;5.50;;;2.70;89.20;;;;;;5040233;28;20099;-77
2023/01/24 04:29:41;;;;;;;10.25;5.57;;;2.80;89.30;;;;;;5022719;28;20033;-76
2023/01/24 04:32:06;;;;;;;9.77;5.00;;;2.70;89.30;;;;;;5026178;28;20055;-77
2023/01/24 04:34:32;;;;;;;9.82;5.32;;;2.70;89.30;;;;;;5047202;28;20033;-75
2023/01/24 04:36:57;;;;;;;12.40;6.18;;;2.70;89.40;;;;;;5037686;28;20056;-79
2023/01/24 04:39:23;;;;;;;10.77;6.13;;;2.80;89.50;;;;;;5020419;28;20087;-78
2023/01/24 04:41:48;;;;;;;10.05;5.75;;;2.70;89.40;;;;;;5017251;28;20055;-79
2023/01/24 04:44:14;;;;;;;12.90;6.25;;;2.70;89.40;;;;;;5034056;28;20033;-78
2023/01/24 04:46:39;;;;;;;8.60;4.95;;;2.80;89.50;;;;;;5022742;28;20033;-79
2023/01/24 04:49:05;;;;;;;9.55;5.53;;;2.70;89.40;;;;;;5021121;28;20039;-80
2023/01/24 04:51:30;;;;;;;8.45;4.68;;;2.70;89.40;;;;;;5030614;28;20029;-79
2023/01/24 04:53:56;;;;;;;11.65;5.28;;;2.70;89.40;;;;;;5025326;28;20035;-79
2023/01/24 04:56:22;;;;;;;11.18;5.20;;;2.70;89.50;;;;;;5031885;28;20538;-79
2023/01/24 04:58:47;;;;;;;8.38;4.93;;;2.70;89.50;;;;;;5006168;28;20036;-80
2023/01/24 05:01:13;;;;;;;9.32;5.10;;;2.70;89.50;;;;;;5019517;28;20083;-78
2023/01/24 05:03:38;;;;;;;7.45;4.75;;;2.70;89.60;;;;;;5020502;28;20090;-78
2023/01/24 05:06:04;;;;;;;9.50;5.38;;;2.70;89.60;;;;;;5018321;28;20444;-77
2023/01/24 05:08:30;;;;;;;14.10;8.75;;;2.70;89.60;;;;;;5020686;28;20140;-79
2023/01/24 05:10:55;;;;;;;10.55;6.00;;;2.70;89.60;;;;;;5017597;28;20037;-76
2023/01/24 05:13:21;;;;;;;11.15;6.10;;;2.70;89.60;;;;;;5037219;28;20029;-77
2023/01/24 05:15:49;;;;;;;8.15;4.82;;;2.70;89.70;;;;;;5009980;28;20613;-78
2023/01/24 05:18:14;;;;;;;9.88;5.53;;;2.70;89.70;;;;;;5008668;28;20041;-79
2023/01/24 05:20:40;;;;;;;11.63;5.45;;;2.70;89.60;;;;;;5027120;28;20040;-79
2023/01/24 05:23:05;;;;;;;11.82;5.95;;;2.70;89.70;;;;;;5006314;28;20041;-78
2023/01/24 05:25:31;;;;;;;10.82;5.57;;;2.70;89.70;;;;;;5004172;28;20040;-80
2023/01/24 05:27:57;;;;;;;9.70;5.00;;;2.70;89.70;;;;;;4999731;28;20050;-78
2023/01/24 05:30:22;;;;;;;10.25;4.65;;;2.70;89.70;;;;;;5033079;28;20045;-78
2023/01/24 05:32:48;;;;;;;9.63;5.18;;;2.70;89.70;;;;;;5018618;28;20044;-79
2023/01/24 05:35:13;;;;;;;11.43;5.35;;;2.70;89.70;;;;;;5019400;28;20122;-77
2023/01/24 05:37:40;;;;;;;10.40;5.28;;;2.70;89.80;;;;;;5017438;28;20061;-76
2023/01/24 05:40:08;;;;;;;7.30;4.72;;;2.70;89.80;;;;;;5020321;28;20757;-76
2023/01/24 05:42:33;;;;;;;10.18;5.53;;;2.70;89.80;;;;;;5013785;28;20053;-78
2023/01/24 05:44:59;;;;;;;10.73;5.40;;;2.70;89.90;;;;;;5023087;28;20041;-75
2023/01/24 05:47:24;;;;;;;10.95;5.47;;;2.70;89.90;;;;;;5032397;28;20855;-78
2023/01/24 05:49:50;;;;;;;12.73;5.88;;;2.70;89.80;;;;;;5021580;28;20132;-79
2023/01/24 05:52:21;;;;;;;12.15;5.65;;;2.70;89.90;;;;;;5027811;28;20033;-79
2023/01/24 05:54:50;;;;;;;9.57;5.43;;;2.70;89.90;;;;;;5042055;28;20041;-78
2023/01/24 05:57:15;;;;;;;8.80;5.15;;;2.70;89.80;;;;;;5009178;28;20104;-79
2023/01/24 05:59:41;;;;;;;10.65;5.55;;;2.70;89.80;;;;;;5024389;28;20202;-78
2023/01/24 06:02:07;;;;;;;8.55;4.63;;;2.70;89.80;;;;;;5005732;28;20041;-78
2023/01/24 06:04:32;;;;;;;9.10;5.00;;;2.70;89.80;;;;;;5016969;28;21192;-80
2023/01/24 06:06:58;;;;;;;7.95;4.85;;;2.70;89.80;;;;;;5023786;28;20074;-79
2023/01/24 06:09:23;;;;;;;8.95;4.80;;;2.70;89.90;;;;;;5032318;28;20131;-78
2023/01/24 06:11:49;;;;;;;11.85;5.35;;;2.70;89.80;;;;;;5036903;28;20037;-78
2023/01/24 06:14:15;;;;;;;9.30;5.30;;;2.70;89.90;;;;;;5033415;28;20029;-80
2023/01/24 06:16:41;;;;;;;9.18;5.10;;;2.70;89.90;;;;;;5035738;28;20052;-78
2023/01/24 06:19:08;;;;;;;6.90;4.32;;;2.70;89.90;;;;;;5021728;28;20063;-78
2023/01/24 06:21:36;;;;;;;10.32;5.35;;;2.60;89.80;;;;;;5018325;28;20037;-78
2023/01/24 06:24:02;;;;;;;11.98;5.57;;;2.70;89.90;;;;;;5031812;28;20094;-79
2023/01/24 06:26:27;;;;;;;7.68;4.60;;;2.60;89.80;;;;;;5031757;28;20040;-79
2023/01/24 06:28:53;;;;;;;8.93;4.95;;;2.60;89.80;;;;;;5037098;28;20040;-79
2023/01/24 06:31:46;;;;;;;9.65;5.43;;;2.60;89.80;;;;;;5021603;28;20048;-78
2023/01/24 06:34:27;;;;;;;12.48;5.68;;;2.70;90.00;;;;;;5029282;28;20033;-76
2023/01/24 06:36:59;;;;;;;11.55;6.43;;;2.60;89.80;;;;;;5029196;28;20095;-79
2023/01/24 06:39:25;;;;;;;9.30;4.78;;;2.70;89.90;;;;;;5035914;28;20112;-80
2023/01/24 06:41:51;;;;;;;11.60;5.78;;;2.60;89.80;;;;;;5035145;28;20127;-78
2023/01/24 06:44:17;;;;;;;10.80;5.65;;;2.60;89.80;;;;;;5037128;28;20053;-78
2023/01/24 06:46:42;;;;;;;12.38;5.90;;;2.60;89.90;;;;;;5022669;28;20080;-78
2023/01/24 06:49:10;;;;;;;13.13;6.10;;;2.70;90.00;;;;;;5041326;28;20476;-76
2023/01/24 06:51:36;;;;;;;12.35;6.05;;;2.60;89.90;;;;;;5026624;28;20025;-78
2023/01/24 06:54:01;;;;;;;11.80;5.78;;;2.60;89.90;;;;;;5025182;28;20050;-79
2023/01/24 06:56:27;;;;;;;10.32;5.07;;;2.60;89.80;;;;;;5022028;28;20033;-77
2023/01/24 06:58:53;;;;;;;9.13;5.43;;;2.60;89.90;;;;;;5040131;28;20036;-79
2023/01/24 07:01:18;;;;;;;11.13;5.10;;;2.60;89.80;;;;;;5036114;28;20021;-77
2023/01/24 07:03:44;;;;;;;10.05;5.15;;;2.60;89.90;;;;;;5038572;28;20041;-77
2023/01/24 07:06:09;;;;;;;9.13;4.65;;;2.60;89.90;;;;;;5035667;28;20051;-78
2023/01/24 07:08:35;;;;;;;8.93;5.38;;;2.60;89.90;;;;;;5006160;28;20040;-79
2023/01/24 07:11:00;;;;;;;7.93;4.72;;;2.60;89.90;;;;;;5023297;28;20040;-77
2023/01/24 07:13:26;;;;;;;9.38;4.90;;;2.60;89.90;;;;;;5028922;28;20121;-79
2023/01/24 07:15:51;;;;;;;8.45;4.88;;;2.60;89.90;;;;;;5007190;28;20044;-79
2023/01/24 07:18:17;;;;;;;10.00;5.25;;;2.60;89.90;;;;;;5005622;28;20059;-78
2023/01/24 07:20:43;;;;;;;10.23;5.15;;;2.60;89.90;;;;;;5026662;28;20040;-79
2023/01/24 07:23:32;;;;;;;8.32;4.32;;;2.60;89.90;;;;;;5042660;28;20460;-78
2023/01/24 07:25:57;;;;;;;13.68;5.57;;;2.60;89.90;;;;;;5036291;28;20044;-79
2023/01/24 07:28:23;;;;;;;10.05;5.18;;;2.60;89.90;;;;;;5022122;28;20572;-79
2023/01/24 07:30:49;;;;;;;10.68;5.55;;;2.60;89.90;;;;;;5041392;28;20044;-77
2023/01/24 07:33:14;;;;;;;8.73;4.90;;;2.60;89.90;;;;;;5035868;28;20602;-77
2023/01/24 07:35:41;;;;;;;10.70;6.03;;;2.60;89.90;;;;;;5018773;28;20168;-79
2023/01/24 07:38:06;;;;;;;10.25;5.40;;;2.60;89.90;;;;;;5024239;28;20048;-79
2023/01/24 07:40:32;;;;;;;10.52;5.97;;;2.60;89.90;;;;;;5042540;28;20045;-80
2023/01/24 07:43:00;;;;;;;10.35;5.70;;;2.60;90.00;;;;;;5039619;28;20033;-79
2023/01/24 07:45:27;;;;;;;13.13;5.78;;;2.60;90.00;;;;;;5020518;28;20037;-79
2023/01/24 07:47:58;;;;;;;11.02;5.45;;;2.60;90.00;;;;;;5041442;28;20051;-80
2023/01/24 07:50:24;;;;;;;10.20;5.65;;;2.60;89.90;;;;;;5016955;28;20079;-77
2023/01/24 14:36:19;;;;;;;7.88;5.05;;;3.00;89.60;;;;;;5023334;28;20118;-78
2023/01/24 14:38:44;;;;;;;7.93;4.80;;;3.00;89.60;;;;;;5014933;28;20029;-78
2023/01/24 14:41:21;;;;;;;12.88;6.38;;;3.00;89.60;;;;;;5013736;28;20091;-77
2023/01/24 14:43:47;;;;;;;7.47;5.10;;;3.00;89.70;;;;;;4979471;28;20042;-78
2023/01/24 14:46:16;;;;;;;8.23;4.50;;;3.00;89.70;;;;;;5002710;28;20038;-78
2023/01/24 14:48:41;;;;;;;7.22;5.07;;;3.00;89.80;;;;;;5004030;28;20570;-76
2023/01/24 14:51:12;;;;;;;8.20;5.18;;;3.00;89.80;;;;;;5033338;28;20041;-79
2023/01/24 14:53:38;;;;;;;11.02;5.28;;;3.00;89.80;;;;;;5003583;28;20037;-79
2023/01/24 14:56:11;;;;;;;11.80;5.15;;;3.00;89.80;;;;;;5014342;28;20750;-78
2023/01/24 14:58:37;;;;;;;10.52;4.78;;;3.00;89.80;;;;;;5014562;28;20041;-78
2023/01/24 15:01:03;;;;;;;9.35;5.18;;;3.00;89.80;;;;;;4998662;28;20041;-78
2023/01/24 15:03:31;;;;;;;9.02;5.45;;;3.00;89.80;;;;;;5029679;28;20099;-77
2023/01/24 15:05:58;;;;;;;7.65;4.50;;;3.00;89.80;;;;;;5018492;28;20129;-78
2023/01/24 15:08:25;;;;;;;8.88;5.30;;;3.00;89.80;;;;;;4997176;28;20045;-79
2023/01/24 15:11:05;;;;;;;8.82;5.43;;;3.00;89.70;;;;;;5001276;28;20041;-79
2023/01/24 15:13:31;;;;;;;7.53;4.32;;;3.00;89.70;;;;;;5027603;28;20832;-79
2023/01/24 15:15:57;;;;;;;7.68;4.60;;;3.00;89.80;;;;;;5002196;28;20030;-79
2023/01/24 15:18:39;;;;;;;8.57;5.18;;;3.00;89.70;;;;;;5018173;28;20044;-79
2023/01/24 15:21:05;;;;;;;8.77;4.95;;;3.00;89.80;;;;;;4999781;28;20045;-78
2023/01/24 15:23:31;;;;;;;8.18;4.80;;;3.00;89.80;;;;;;5029087;28;20632;-78
2023/01/24 15:25:57;;;;;;;8.07;4.68;;;3.00;89.80;;;;;;5014407;28;20412;-79
2023/01/24 15:28:29;;;;;;;6.80;4.25;;;2.90;90.20;;;;;;5014935;28;20038;-78
2023/01/24 15:31:04;;;;;;;7.43;4.55;;;3.00;89.90;;;;;;5031725;28;20041;-78
2023/01/24 15:33:42;;;;;;;6.25;4.25;;;2.90;89.80;;;;;;5014842;28;20121;-78
2023/01/24 15:36:28;;;;;;;7.57;4.93;;;3.00;89.80;;;;;;5013799;28;20505;-78
2023/01/24 15:38:55;;;;;;;6.47;4.93;;;2.90;89.70;;;;;;4998199;28;20064;-78
2023/01/24 15:43:45;;;;;;;7.85;4.57;;;2.90;89.70;;;;;;4995667;28;20033;-78
2023/01/24 15:44:10;;;;;;;7.68;5.05;;;3.00;89.70;;;;;;4993976;28;20045;-77
2023/01/24 15:49:30;;;;;;;12.30;6.55;;;2.90;89.70;;;;;;5005652;28;20092;-78
2023/01/24 15:52:11;;;;;;;10.82;5.55;;;2.90;89.70;;;;;;5019996;28;20041;-79
2023/01/24 15:54:37;;;;;;;12.77;6.97;;;2.90;89.70;;;;;;5014958;28;20083;-78
2023/01/24 15:57:14;;;;;;;10.80;5.70;;;2.90;89.70;;;;;;4987958;28;20037;-76
2023/01/24 15:59:42;;;;;;;9.73;5.85;;;2.90;89.70;;;;;;4986816;28;20544;-79
2023/01/24 16:02:11;;;;;;;9.13;5.40;;;2.90;89.70;;;;;;4985241;28;20048;-78
2023/01/24 16:04:37;;;;;;;9.07;5.80;;;2.90;89.70;;;;;;4983002;28;20042;-78
2023/01/24 16:07:02;;;;;;;7.45;5.45;;;2.90;89.70;;;;;;5003316;28;20025;-79
2023/01/24 16:09:28;;;;;;;7.35;4.70;;;2.90;89.70;;;;;;5002680;28;20491;-78
2023/01/24 16:11:53;;;;;;;12.57;6.40;;;2.90;89.70;;;;;;5008085;28;20029;-79
2023/01/24 16:14:21;;;;;;;9.27;5.65;;;2.90;89.80;;;;;;5005968;28;20049;-77
2023/01/24 16:16:47;;;;;;;8.93;5.55;;;2.90;89.80;;;;;;4996090;28;20037;-78
2023/01/24 16:19:17;;;;;;;9.38;5.07;;;2.90;89.90;;;;;;4996496;28;20048;-79
2023/01/24 16:21:43;;;;;;;9.82;5.80;;;2.90;89.80;;;;;;4969141;28;20463;-79
2023/01/24 16:24:08;;;;;;;10.63;5.45;;;2.90;89.80;;;;;;5014732;28;20445;-78
2023/01/24 16:26:34;;;;;;;8.15;5.15;;;2.90;89.80;;;;;;4999658;28;20041;-77
2023/01/24 16:28:59;;;;;;;8.05;5.38;;;2.90;89.80;;;;;;5009520;28;20038;-77
2023/01/24 16:31:25;;;;;;;8.82;5.80;;;2.90;89.90;;;;;;4999657;28;20029;-78
2023/01/24 16:33:50;;;;;;;9.15;5.85;;;2.90;89.90;;;;;;4981800;28;20129;-78
2023/01/24 16:36:16;;;;;;;12.85;5.35;;;2.90;89.90;;;;;;4995457;28;20056;-78
2023/01/24 16:38:42;;;;;;;9.05;5.40;;;2.90;89.80;;;;;;5032770;28;20061;-77
2023/01/24 16:41:07;;;;;;;9.43;5.30;;;2.90;89.80;;;;;;5000776;28;20475;-78
2023/01/24 16:43:33;;;;;;;9.68;5.60;;;2.90;89.80;;;;;;4970595;28;20053;-78
2023/01/24 16:45:59;;;;;;;9.32;5.20;;;2.90;89.90;;;;;;5027598;28;20611;-77
2023/01/24 16:48:25;;;;;;;9.20;4.88;;;2.80;89.80;;;;;;5014705;28;20467;-77
2023/01/24 16:50:50;;;;;;;7.95;5.18;;;2.80;89.80;;;;;;5000851;28;20121;-78
2023/01/24 16:53:16;;;;;;;16.30;6.82;;;2.80;89.80;;;;;;4955030;28;20025;-79
2023/01/24 16:55:41;;;;;;;10.55;5.70;;;2.80;89.80;;;;;;4992451;28;20037;-77
2023/01/24 16:58:08;;;;;;;8.90;5.43;;;2.80;89.80;;;;;;5018639;28;21186;-78
2023/01/24 17:00:33;;;;;;;9.93;5.55;;;2.80;89.80;;;;;;4996174;28;20045;-78
2023/01/24 17:02:59;;;;;;;11.18;6.05;;;2.80;89.80;;;;;;4999307;28;20063;-77
2023/01/24 17:05:25;;;;;;;12.07;6.50;;;2.80;89.80;;;;;;5001319;28;20124;-76
2023/01/24 17:07:51;;;;;;;11.23;5.45;;;2.80;90.20;;;;;;5000741;28;20484;-79
2023/01/24 17:10:16;;;;;;;9.63;6.18;;;2.80;89.80;;;;;;5012264;28;20033;-78
2023/01/24 17:12:42;;;;;;;9.40;6.07;;;2.80;89.80;;;;;;5017384;28;20032;-76
2023/01/24 17:15:08;;;;;;;7.90;5.10;;;2.80;89.80;;;;;;4988344;28;21445;-77
2023/01/24 17:17:34;;;;;;;9.30;5.80;;;2.80;89.80;;;;;;4988373;28;20057;-78
2023/01/24 17:19:59;;;;;;;8.15;5.00;;;2.80;90.30;;;;;;4995774;28;20037;-78
2023/01/24 17:22:26;;;;;;;7.60;4.60;;;2.80;89.80;;;;;;4992144;28;20101;-79
2023/01/24 17:24:51;;;;;;;7.40;4.68;;;2.80;89.90;;;;;;5008546;28;20049;-78
2023/01/24 17:27:17;;;;;;;10.18;5.50;;;2.80;89.90;;;;;;4996190;28;20459;-78
2023/01/24 17:29:43;;;;;;;7.90;4.90;;;2.80;89.90;;;;;;4998317;28;20029;-77
2023/01/24 17:32:09;;;;;;;8.13;5.00;;;2.80;89.90;;;;;;4983925;28;20113;-77
2023/01/24 17:34:34;;;;;;;9.93;4.97;;;2.80;90.00;;;;;;5008069;28;20123;-78
2023/01/24 17:37:00;;;;;;;8.57;5.32;;;2.80;90.00;;;;;;5014701;28;20080;-79
2023/01/24 17:39:26;;;;;;;9.13;5.28;;;2.80;90.00;;;;;;4983313;28;20421;-77
2023/01/24 17:41:51;;;;;;;8.10;5.00;;;2.80;90.00;;;;;;5013763;28;20025;-78
2023/01/24 17:44:17;;;;;;;10.13;6.43;;;2.80;90.00;;;;;;4974693;28;20131;-76
2023/01/24 17:46:42;;;;;;;9.13;6.15;;;2.80;90.00;;;;;;5000371;28;20034;-78
2023/01/24 17:49:10;;;;;;;23.75;17.38;;;2.80;90.00;;;;;;4992355;28;20030;-78
2023/01/24 17:51:36;;;;;;;13.18;9.45;;;2.80;90.00;;;;;;5016573;28;20044;-76
2023/01/24 17:54:04;;;;;;;16.05;9.40;;;2.80;90.00;;;;;;5019141;28;20044;-78
2023/01/24 17:56:31;;;;;;;11.40;7.00;;;2.80;90.00;;;;;;4979315;28;20048;-79
2023/01/24 17:58:57;;;;;;;12.20;7.35;;;2.80;90.00;;;;;;5016887;28;20029;-79
2023/01/24 18:01:22;;;;;;;16.85;8.13;;;2.80;90.00;;;;;;4995711;28;20029;-78
2023/01/24 18:03:48;;;;;;;18.00;8.20;;;2.80;90.00;;;;;;5002875;28;20659;-78
2023/01/24 18:06:16;;;;;;;19.95;10.65;;;2.80;90.00;;;;;;4996801;28;20068;-76
2023/01/24 18:08:41;;;;;;;12.25;6.68;;;2.80;90.00;;;;;;4986660;28;20047;-78
2023/01/24 18:11:10;;;;;;;10.07;6.30;;;2.80;90.00;;;;;;5030612;28;21182;-77
2023/01/24 18:13:36;;;;;;;9.95;5.75;;;2.80;90.00;;;;;;4988651;28;20430;-78
2023/01/24 18:16:09;;;;;;;8.90;6.30;;;2.70;89.90;;;;;;5004096;28;20039;-79
2023/01/24 18:18:38;;;;;;;8.90;5.90;;;2.80;90.00;;;;;;5000563;28;20071;-78
2023/01/24 18:21:10;;;;;;;8.95;5.68;;;2.80;90.00;;;;;;5012634;28;20123;-77
2023/01/24 18:23:35;;;;;;;8.50;5.55;;;2.80;90.00;;;;;;5014407;28;20061;-78
2023/01/24 18:26:01;;;;;;;9.75;6.00;;;2.80;90.00;;;;;;5015147;28;20678;-80
2023/01/24 18:28:27;;;;;;;8.57;5.25;;;2.80;90.00;;;;;;4986826;28;20044;-78
2023/01/24 18:30:52;;;;;;;8.48;5.45;;;2.70;89.90;;;;;;5001688;28;20619;-79
2023/01/24 18:33:18;;;;;;;8.25;5.05;;;2.80;90.00;;;;;;5014785;28;20147;-79
2023/01/24 18:35:44;;;;;;;8.63;5.97;;;2.70;89.90;;;;;;4967021;28;20084;-79
2023/01/24 18:38:09;;;;;;;9.80;6.00;;;2.70;90.00;;;;;;4993384;28;20135;-79
2023/01/24 18:40:35;;;;;;;7.30;5.18;;;2.70;90.00;;;;;;4980948;28;20053;-78
2023/01/24 18:43:01;;;;;;;10.43;6.63;;;2.70;89.90;;;;;;4976562;28;20811;-78
2023/01/24 18:45:26;;;;;;;9.25;6.30;;;2.70;89.90;;;;;;4967606;28;20031;-75
2023/01/24 18:47:52;;;;;;;11.98;7.47;;;2.80;90.00;;;;;;5009553;28;20534;-78
2023/01/24 18:50:17;;;;;;;11.75;6.70;;;2.70;90.00;;;;;;4969840;28;20025;-78
2023/01/24 18:52:43;;;;;;;15.30;7.93;;;2.70;90.00;;;;;;4982972;28;20471;-78
2023/01/24 18:55:11;;;;;;;12.35;7.15;;;2.70;90.00;;;;;;4981417;28;20057;-78
2023/01/24 18:57:38;;;;;;;17.38;8.77;;;2.70;90.00;;;;;;4987777;28;20517;-76
2023/01/24 19:00:04;;;;;;;13.43;8.55;;;2.80;90.00;;;;;;4984444;28;20052;-78
2023/01/24 19:02:29;;;;;;;13.90;7.53;;;2.80;90.00;;;;;;4965728;28;20038;-78
2023/01/24 19:04:55;;;;;;;12.93;7.30;;;2.80;90.00;;;;;;5002184;28;20017;-77
2023/01/24 19:07:20;;;;;;;11.50;7.22;;;2.70;90.00;;;;;;4965204;28;20029;-78
2023/01/24 19:10:33;;;;;;;11.05;6.80;;;2.70;90.00;;;;;;4984969;28;20038;-78
2023/01/24 19:13:10;;;;;;;11.75;7.10;;;2.70;90.00;;;;;;4961989;28;20572;-78
2023/01/24 19:15:38;;;;;;;11.82;7.35;;;2.70;90.00;;;;;;4953120;28;20612;-79
2023/01/24 19:18:04;;;;;;;14.50;7.88;;;2.70;90.00;;;;;;4968611;28;20120;-79
2023/01/24 19:20:29;;;;;;;19.92;9.52;;;2.70;90.00;;;;;;4950543;28;20130;-77
2023/01/24 19:22:55;;;;;;;13.25;7.47;;;2.70;90.00;;;;;;4994530;28;20041;-78
2023/01/24 19:25:23;;;;;;;98.45;44.60;;;2.70;90.00;;;;;;4954272;28;20038;-78
2023/01/24 19:27:49;;;;;;;38.40;18.95;;;2.70;90.00;;;;;;4963393;28;20030;-78
2023/01/24 19:30:14;;;;;;;14.48;9.18;;;2.70;90.00;;;;;;4980470;28;20087;-77
2023/01/24 19:32:40;;;;;;;14.77;7.28;;;2.70;90.00;;;;;;4958288;28;20036;-76
2023/01/24 19:35:06;;;;;;;13.98;7.88;;;2.70;90.00;;;;;;4975846;28;20495;-77
2023/01/24 19:37:31;;;;;;;12.57;7.35;;;2.70;90.00;;;;;;4975480;28;20034;-79
2023/01/24 19:39:57;;;;;;;11.63;7.45;;;2.70;90.00;;;;;;4964523;28;20038;-76
2023/01/24 19:42:22;;;;;;;12.27;7.25;;;2.70;90.00;;;;;;4938222;28;20509;-78
2023/01/24 19:44:48;;;;;;;11.73;6.82;;;2.70;90.00;;;;;;4979761;28;20086;-78
2023/01/24 19:47:13;;;;;;;10.00;6.65;;;2.70;90.00;;;;;;4989970;28;20095;-78
2023/01/24 19:49:39;;;;;;;46.42;21.60;;;2.70;90.00;;;;;;4955547;28;20033;-78
2023/01/24 19:52:05;;;;;;;50.08;21.35;;;2.70;90.00;;;;;;4981538;28;20121;-77
2023/01/24 19:54:30;;;;;;;21.55;10.68;;;2.70;90.10;;;;;;4980598;28;20029;-79
2023/01/24 19:56:56;;;;;;;15.20;8.48;;;2.70;90.10;;;;;;4997012;28;20041;-78
2023/01/24 19:59:21;;;;;;;16.67;9.15;;;2.70;90.10;;;;;;4995464;28;20111;-78
2023/01/24 20:01:47;;;;;;;16.20;7.85;;;2.70;90.10;;;;;;4981982;28;20161;-78
2023/01/24 20:04:13;;;;;;;12.23;6.90;;;2.70;90.10;;;;;;4978695;28;20048;-78
2023/01/24 20:06:39;;;;;;;15.13;7.40;;;2.70;90.10;;;;;;4998922;28;20044;-78
2023/01/24 20:09:05;;;;;;;10.77;7.10;;;2.70;90.10;;;;;;4980950;28;20065;-79
2023/01/24 20:11:30;;;;;;;13.23;7.30;;;2.70;90.10;;;;;;4966659;28;20180;-77